Eagle Springs, NC (27242)

10:37 PM EST on December 04, 2016 (GMT -0500)
7 Lks N | | Change Station

Elev 540 ft 35.28 °N, 79.57 °W | Updated 8 seconds ago

Light Rain
Light Rain Mist
42.0 °F
Feels Like 42 °F
N
0.0
Wind Variable Wind from ENE
Gusts 0.0 mph

Today
High -- | Low -- °F
--% Chance of Precip.
Yesterday
High -- | Low -- °F
Precip. -- in
Pressure 30.16 in
Visibility 3.0 miles
Clouds Overcast 300 ft
Windchill 42 °F
Dew Point 42 °F
Humidity 98%
Rainfall 0.70 in
Snow Depth Not available.
7:11 AM 5:06 PM
Waxing Crescent, 28% visible
METAR KSOP 050256Z AUTO 09003KT 3SM -RA BR OVC003 06/06 A3010 RMK AO2 SLP213 P0001 60002 T00560056 58012
Pressure 30.16 in
Visibility 3.0 miles
Clouds Overcast 300 ft
Windchill 42 °F
Dew Point 42 °F
Humidity 98%
Rainfall 0.70 in
Snow Depth Not available.
7:11 AM 5:06 PM
Waxing Crescent, 28% visible
METAR KSOP 050256Z AUTO 09003KT 3SM -RA BR OVC003 06/06 A3010 RMK AO2 SLP213 P0001 60002 T00560056 58012

10-Day Weather Forecast

Almanac

Astronomy

Dec. 04, 2016 Rise Set
Actual Time
Civil Twilight
Nautical Twilight
Astronomical Twilight
Moon
Length of Visible Light
Length of Day
Tomorrow will be .
, % of the Moon is Illuminated

Today's Extremes

State Highs State Lows

Community

WunderPhotos

Upload Photos

1,955,752 photos uploaded!

WunderBlog® & News

Nearby

Air Quality

  Air Quality AQ Index Pollutant
Not available.

Snow Depth

Station Depth Elevation

Earthquake Activity

City Distance Mag. Time & Date
Minimum magnitude displayed is 2.5.

Coastal Water Temperatures

Place Temperature

Stations

Nearby Weather Stations

Station Location Temp. Windchill Dew Point Humidity Wind Precip. Elev Updated Type
                   

Watches & Warnings

There are currently no watches in effect.